Map

Track Data

SID SEASON NUMBER BASIN SUBBASIN NAME ISO_TIME NATURE LAT LON WMO_WIND WMO_PRES WMO_AGENCY TRACK_TYPE DIST2LAND LANDFALL IFLAG USA_AGENCY USA_ATCF_ID USA_LAT USA_LON USA_RECORD USA_STATUS USA_WIND USA_PRES USA_SSHS USA_R34_NE USA_R34_SE USA_R34_SW USA_R34_NW USA_R50_NE USA_R50_SE USA_R50_SW USA_R50_NW USA_R64_NE USA_R64_SE USA_R64_SW USA_R64_NW USA_POCI USA_ROCI USA_RMW USA_EYE TOKYO_LAT TOKYO_LON TOKYO_GRADE TOKYO_WIND TOKYO_PRES TOKYO_R50_DIR TOKYO_R50_LONG TOKYO_R50_SHORT TOKYO_R30_DIR TOKYO_R30_LONG TOKYO_R30_SHORT TOKYO_LAND CMA_LAT CMA_LON CMA_CAT CMA_WIND CMA_PRES HKO_LAT HKO_LON HKO_CAT HKO_WIND HKO_PRES NEWDELHI_LAT NEWDELHI_LON NEWDELHI_GRADE NEWDELHI_WIND NEWDELHI_PRES NEWDELHI_CI NEWDELHI_DP NEWDELHI_POCI REUNION_LAT REUNION_LON REUNION_TYPE REUNION_WIND REUNION_PRES REUNION_TNUM REUNION_CI REUNION_RMW REUNION_R34_NE REUNION_R34_SE REUNION_R34_SW REUNION_R34_NW REUNION_R50_NE REUNION_R50_SE REUNION_R50_SW REUNION_R50_NW REUNION_R64_NE REUNION_R64_SE REUNION_R64_SW REUNION_R64_NW BOM_LAT BOM_LON BOM_TYPE BOM_WIND BOM_PRES BOM_TNUM BOM_CI BOM_RMW BOM_R34_NE BOM_R34_SE BOM_R34_SW BOM_R34_NW BOM_R50_NE BOM_R50_SE BOM_R50_SW BOM_R50_NW BOM_R64_NE BOM_R64_SE BOM_R64_SW BOM_R64_NW BOM_ROCI BOM_POCI BOM_EYE BOM_POS_METHOD BOM_PRES_METHOD NADI_LAT NADI_LON NADI_CAT NADI_WIND NADI_PRES WELLINGTON_LAT WELLINGTON_LON WELLINGTON_WIND WELLINGTON_PRES DS824_LAT DS824_LON DS824_STAGE DS824_WIND DS824_PRES TD9636_LAT TD9636_LON TD9636_STAGE TD9636_WIND TD9636_PRES TD9635_LAT TD9635_LON TD9635_WIND TD9635_PRES TD9635_ROCI NEUMANN_LAT NEUMANN_LON NEUMANN_CLASS NEUMANN_WIND NEUMANN_PRES MLC_LAT MLC_LON MLC_CLASS MLC_WIND MLC_PRES USA_GUST BOM_GUST BOM_GUST_PER REUNION_GUST REUNION_GUST_PER USA_SEAHGT USA_SEARAD_NE USA_SEARAD_SE USA_SEARAD_SW USA_SEARAD_NW STORM_SPEED STORM_DIR
1937293N12142 1937 58 WP MM NOT_NAMED 1937-10-19 21:00:00 NR 12.1000 142.200 main 1597 1597 __________O___ -1 12.1000 142.200 4 10 315
1937293N12142 1937 58 WP MM NOT_NAMED 1937-10-20 00:00:00 NR 12.4535 141.837 main 1626 1626 __________P___ -1 12.4535 141.837 4 10 315
1937293N12142 1937 58 WP MM NOT_NAMED 1937-10-20 03:00:00 NR 12.8055 141.479 main 1644 1640 __________P___ -1 12.8055 141.479 4 10 316
1937293N12142 1937 58 WP MM NOT_NAMED 1937-10-20 06:00:00 NR 13.1547 141.131 main 1670 1654 __________P___ -1 13.1547 141.131 4 10 316
1937293N12142 1937 58 WP MM NOT_NAMED 1937-10-20 09:00:00 NR 13.5000 140.800 main 1654 1627 __________O___ -1 13.5000 140.800 4 9 318
1937293N12142 1937 58 WP MM NOT_NAMED 1937-10-20 12:00:00 NR 13.8432 140.489 main 1627 1601 __________P___ -1 13.8432 140.489 4 9 320
1937293N12142 1937 58 WP MM NOT_NAMED 1937-10-20 15:00:00 NR 14.1972 140.192 main 1603 1579 __________P___ -1 14.1972 140.192 4 9 322
1937293N12142 1937 58 WP MM NOT_NAMED 1937-10-20 18:00:00 NR 14.5776 139.898 main 1581 1554 __________P___ -1 14.5776 139.898 4 10 325
1937293N12142 1937 58 WP MM NOT_NAMED 1937-10-20 21:00:00 NR 15.0000 139.600 main 1556 1533 __________O___ -1 15.0000 139.600 4 12 327
1937293N12142 1937 58 WP MM NOT_NAMED 1937-10-21 00:00:00 NR 15.5389 139.255 main 1535 1506 __________P___ -1 15.5389 139.255 4 13 329
1937293N12142 1937 58 WP MM NOT_NAMED 1937-10-21 03:00:00 NR 16.1102 138.906 main 1509 1491 __________P___ -1 16.1102 138.906 4 13 330
1937293N12142 1937 58 WP MM NOT_NAMED 1937-10-21 06:00:00 NR 16.6515 138.580 main 1497 1478 __________P___ -1 16.6515 138.580 4 12 330
1937293N12142 1937 58 WP MM NOT_NAMED 1937-10-21 09:00:00 NR 17.1000 138.300 main 1482 1470 __________O___ -1 17.1000 138.300 4 9 327
1937293N12142 1937 58 WP MM NOT_NAMED 1937-10-21 12:00:00 NR 17.3671 138.095 main 1474 1458 __________P___ -1 17.3671 138.095 4 6 322
1937293N12142 1937 58 WP MM NOT_NAMED 1937-10-21 15:00:00 NR 17.5396 137.939 main 1458 1453 __________P___ -1 17.5396 137.939 4 4 318
1937293N12142 1937 58 WP MM NOT_NAMED 1937-10-21 18:00:00 NR 17.6672 137.814 main 1457 1447 __________P___ -1 17.6672 137.814 4 3 319
1937293N12142 1937 58 WP MM NOT_NAMED 1937-10-21 21:00:00 NR 17.8000 137.700 main 1452 1447 __________O___ -1 17.8000 137.700 4 4 325
1937293N12142 1937 58 WP MM NOT_NAMED 1937-10-22 00:00:00 NR 17.9861 137.580 main 1451 1442 __________P___ -1 17.9861 137.580 4 5 330
1937293N12142 1937 58 WP MM NOT_NAMED 1937-10-22 03:00:00 NR 18.1898 137.464 main 1451 1442 __________P___ -1 18.1899 137.464 4 5 333
1937293N12142 1937 58 WP MM NOT_NAMED 1937-10-22 06:00:00 NR 18.4236 137.342 main 1443 1443 __________P___ -1 18.4236 137.342 4 6 334
1937293N12142 1937 58 WP MM NOT_NAMED 1937-10-22 09:00:00 NR 18.7000 137.200 main 1449 1441 __________O___ -1 18.7000 137.200 4 6 332
1937293N12142 1937 58 WP MM NOT_NAMED 1937-10-22 12:00:00 NR 18.9832 137.029 main 1447 1443 __________P___ -1 18.9832 137.029 4 7 331
1937293N12142 1937 58 WP MM NOT_NAMED 1937-10-22 15:00:00 NR 19.3151 136.837 main 1443 1393 __________P___ -1 19.3151 136.837 4 8 332
1937293N12142 1937 58 WP MM NOT_NAMED 1937-10-22 18:00:00 NR 19.7144 136.626 main 1393 1334 __________P___ -1 19.7144 136.626 4 10 335
1937293N12142 1937 58 WP MM NOT_NAMED 1937-10-22 21:00:00 NR 20.2000 136.400 main 1334 1260 __________O___ -1 20.2000 136.400 4 12 334
1937293N12142 1937 58 WP MM NOT_NAMED 1937-10-23 00:00:00 NR 20.7972 136.063 main 1260 1182 __________P___ -1 20.7972 136.063 4 14 334
1937293N12142 1937 58 WP MM NOT_NAMED 1937-10-23 03:00:00 NR 21.4753 135.726 main 1171 1092 __________P___ -1 21.4753 135.726 4 15 339
1937293N12142 1937 58 WP MM NOT_NAMED 1937-10-23 06:00:00 NR 22.1906 135.476 main 1092 1016 __________P___ -1 22.1906 135.476 4 15 348
1937293N12142 1937 58 WP MM NOT_NAMED 1937-10-23 09:00:00 NR 22.9000 135.400 main 1016 966 __________O___ -1 22.9000 135.400 4 14 5
1937293N12142 1937 58 WP MM NOT_NAMED 1937-10-23 12:00:00 NR 23.5358 135.614 main 966 924 __________P___ -1 23.5358 135.614 4 14 24
1937293N12142 1937 58 WP MM NOT_NAMED 1937-10-23 15:00:00 NR 24.1585 136.009 main 920 894 __________P___ -1 24.1585 136.009 4 15 33
1937293N12142 1937 58 WP MM NOT_NAMED 1937-10-23 18:00:00 NR 24.7768 136.499 main 890 864 __________P___ -1 24.7768 136.499 4 15 36
1937293N12142 1937 58 WP MM NOT_NAMED 1937-10-23 21:00:00 NR 25.4000 137.000 main 864 832 __________O___ -1 25.4000 137.000 4 15 30
1937293N12142 1937 58 WP MM NOT_NAMED 1937-10-24 00:00:00 NR 26.0451 137.325 main 832 767 __________P___ -1 26.0451 137.325 4 14 24
1937293N12142 1937 58 WP MM NOT_NAMED 1937-10-24 03:00:00 NR 26.6972 137.651 main 769 712 __________P___ -1 26.6972 137.651 4 15 26
1937293N12142 1937 58 WP MM NOT_NAMED 1937-10-24 06:00:00 NR 27.3508 138.026 main 701 655 __________P___ -1 27.3508 138.026 4 15 30
1937293N12142 1937 58 WP MM NOT_NAMED 1937-10-24 09:00:00 NR 28.0000 138.500 main 655 611 __________O___ -1 28.0000 138.500 4 15 33
1937293N12142 1937 58 WP MM NOT_NAMED 1937-10-24 12:00:00 NR 28.6407 138.983 main 615 585 __________P___ -1 28.6407 138.983 4 16 37
1937293N12142 1937 58 WP MM NOT_NAMED 1937-10-24 15:00:00 NR 29.2739 139.591 main 582 545 __________P___ -1 29.2739 139.591 4 18 45
1937293N12142 1937 58 WP MM NOT_NAMED 1937-10-24 18:00:00 NR 29.8957 140.404 main 545 510 __________P___ -1 29.8957 140.404 4 21 53
1937293N12142 1937 58 WP MM NOT_NAMED 1937-10-24 21:00:00 NR 30.5000 141.500 main 512 498 __________O___ -1 30.5000 141.500 4 25 61
1937293N12142 1937 58 WP MM NOT_NAMED 1937-10-25 00:00:00 NR 31.1055 142.928 main 507 507 __________P___ -1 31.1055 142.928 4 29 66
1937293N12142 1937 58 WP MM NOT_NAMED 1937-10-25 03:00:00 NR 31.6727 144.648 main 550 550 __________P___ -1 31.6727 144.648 4 33 71
1937293N12142 1937 58 WP MM NOT_NAMED 1937-10-25 06:00:00 NR 32.1774 146.570 main 653 653 __________P___ -1 32.1774 146.570 4 35 75
1937293N12142 1937 58 WP MM NOT_NAMED 1937-10-25 09:00:00 NR 32.6000 148.600 main 786 786 __________O___ -1 32.6000 148.600 4 35 78
1937293N12142 1937 58 WP MM NOT_NAMED 1937-10-25 12:00:00 NR 32.9309 150.659 main 950 950 __________P___ -1 32.9309 150.659 4 35 80
1937293N12142 1937 58 WP MM NOT_NAMED 1937-10-25 15:00:00 NR 33.1811 152.731 main 1114 1114 __________P___ -1 33.1811 152.731 4 35 83
1937293N12142 1937 58 WP MM NOT_NAMED 1937-10-25 18:00:00 NR 33.3658 154.812 main 1294 1294 __________P___ -1 33.3658 154.812 4 35 85
1937293N12142 1937 58 WP MM NOT_NAMED 1937-10-25 21:00:00 NR 33.5000 156.900 main 1463 __________O___ -1 33.5000 156.900 4 35 86

Digital Typhoon Data and Search

About IBTrACS Database

This database is a web-friendly format of International Best Track Archive for Climate Stewardship (IBTrACS), a global best track data archive curated by NOAA dating back to 1842.

Updated: 2021-12-01